Atlantic City, Wyoming
Current Conditions -  °F | °C
As of 11:15 PM on Thursday 30 Oct 2014 (Local Time) from KFWZ Reporting Station
Clear Clear  
Wind Chill: 43°   Ceiling: Unl
Heat Index: 43°   Visibility: 10mi
Dew Point: 25°   Wind: 0mph
Humidity: 49%   Direction: NA
Pressure: 30.3"   Gusts: NA
Location:  42.6143°N, 108.586°W
Report Text: KFWZ 310515Z AUTO 00000KT 10SM CLR 06/M04 A3030 RMK AO2
Loading
Personal Weather Stations






























Interactive Weather Map
Tropical Storm Tracking
New forecast layout! Learn more

10-Day Weather Forecast

Advertisements
Track Severe Weather on mobile